EIN34G EIDW-LSZH
Flight info
| Callsign | EIN34G |
|---|---|
| Flight time | N/A |
| Altitude | 33000 |
| Route | ENDEQ1E ENDEQ Q36 EPOXI L15 PIXUP/N0447F370 L15 FINMA DCT CHT DCT ITVIP DCT KONAN UL607 KOK DCT CIV DCT SUTAL DCT GTQ DCT BAMEV DCT BLM |
| Aircraft | A21N/M-SDE2E3FGHIRWXY/LB1 |
Departure
| Time | 2026-05-07 14:46 |
|---|---|
| Airport | Dublin Airport (EIDW) |
Arrival
| Time | N/A |
|---|---|
| Airport | Zürich Airport (LSZH) |
| Time | Latitude | Longitude | Altitude | Speed | Heading |
|---|---|---|---|---|---|
| 2026-05-07 13:53 | 53.42375 | -6.24162 | 220 ft | 0 kts | 315° |
| 2026-05-07 14:28 | 53.42374 | -6.24162 | 219 ft | 1 kts | 315° |
| 2026-05-07 14:28 | 53.42359 | -6.24131 | 219 ft | 4 kts | 297° |
| 2026-05-07 14:28 | 53.42352 | -6.24090 | 216 ft | 4 kts | 269° |
| 2026-05-07 14:28 | 53.42357 | -6.24047 | 216 ft | 4 kts | 244° |
| 2026-05-07 14:29 | 53.42372 | -6.24010 | 218 ft | 4 kts | 227° |
| 2026-05-07 14:29 | 53.42391 | -6.23979 | 216 ft | 4 kts | 219° |
| 2026-05-07 14:29 | 53.42398 | -6.23970 | 216 ft | 1 kts | 218° |
| 2026-05-07 14:35 | 53.42385 | -6.23988 | 219 ft | 4 kts | 219° |
| 2026-05-07 14:35 | 53.42353 | -6.24036 | 220 ft | 8 kts | 224° |
| 2026-05-07 14:36 | 53.42301 | -6.24104 | 216 ft | 11 kts | 203° |
| 2026-05-07 14:36 | 53.42224 | -6.24159 | 219 ft | 13 kts | 212° |
| 2026-05-07 14:36 | 53.42163 | -6.24278 | 223 ft | 9 kts | 258° |
| 2026-05-07 14:36 | 53.42161 | -6.24387 | 223 ft | 9 kts | 275° |
| 2026-05-07 14:37 | 53.42165 | -6.24453 | 223 ft | 2 kts | 274° |
| 2026-05-07 14:37 | 53.42171 | -6.24550 | 216 ft | 7 kts | 275° |
| 2026-05-07 14:37 | 53.42177 | -6.24651 | 218 ft | 10 kts | 276° |
| 2026-05-07 14:38 | 53.42185 | -6.24789 | 216 ft | 13 kts | 274° |
| 2026-05-07 14:38 | 53.42192 | -6.24955 | 221 ft | 15 kts | 275° |
| 2026-05-07 14:38 | 53.42202 | -6.25121 | 216 ft | 15 kts | 275° |
| 2026-05-07 14:38 | 53.42212 | -6.25310 | 222 ft | 17 kts | 275° |
| 2026-05-07 14:39 | 53.42224 | -6.25522 | 218 ft | 20 kts | 275° |
| 2026-05-07 14:39 | 53.42237 | -6.25768 | 221 ft | 22 kts | 275° |
| 2026-05-07 14:39 | 53.42252 | -6.26035 | 216 ft | 24 kts | 275° |
| 2026-05-07 14:39 | 53.42267 | -6.26321 | 216 ft | 25 kts | 275° |
| 2026-05-07 14:40 | 53.42284 | -6.26618 | 216 ft | 27 kts | 275° |
| 2026-05-07 14:40 | 53.42299 | -6.26899 | 216 ft | 23 kts | 275° |
| 2026-05-07 14:40 | 53.42314 | -6.27180 | 220 ft | 25 kts | 275° |
| 2026-05-07 14:40 | 53.42331 | -6.27480 | 216 ft | 27 kts | 275° |
| 2026-05-07 14:41 | 53.42348 | -6.27786 | 218 ft | 26 kts | 275° |
| 2026-05-07 14:41 | 53.42365 | -6.28093 | 220 ft | 26 kts | 275° |
| 2026-05-07 14:41 | 53.42381 | -6.28407 | 220 ft | 25 kts | 275° |
| 2026-05-07 14:41 | 53.42395 | -6.28632 | 216 ft | 16 kts | 275° |
| 2026-05-07 14:42 | 53.42405 | -6.28809 | 216 ft | 16 kts | 275° |
| 2026-05-07 14:42 | 53.42411 | -6.28942 | 219 ft | 8 kts | 273° |
| 2026-05-07 14:42 | 53.42397 | -6.29030 | 216 ft | 7 kts | 236° |
| 2026-05-07 14:42 | 53.42363 | -6.29070 | 216 ft | 4 kts | 199° |
| 2026-05-07 14:43 | 53.42354 | -6.29074 | 216 ft | 0 kts | 191° |
| 2026-05-07 14:43 | 53.42345 | -6.29077 | 218 ft | 3 kts | 185° |
| 2026-05-07 14:44 | 53.42314 | -6.29076 | 222 ft | 6 kts | 174° |
| 2026-05-07 14:44 | 53.42264 | -6.29066 | 215 ft | 8 kts | 171° |
| 2026-05-07 14:44 | 53.42242 | -6.29009 | 218 ft | 6 kts | 95° |
| 2026-05-07 14:44 | 53.42241 | -6.28996 | 215 ft | 0 kts | 92° |
| 2026-05-07 14:45 | 53.42237 | -6.28878 | 215 ft | 39 kts | 94° |
| 2026-05-07 14:46 | 53.42188 | -6.28015 | 217 ft | 107 kts | 95° |
| 2026-05-07 14:46 | 53.42101 | -6.26447 | 232 ft | 156 kts | 95° |
| 2026-05-07 14:46 | 53.42017 | -6.24655 | 764 ft | 151 kts | 100° |
| 2026-05-07 14:46 | 53.41887 | -6.22890 | 1254 ft | 156 kts | 102° |
| 2026-05-07 14:47 | 53.41780 | -6.21043 | 1743 ft | 160 kts | 101° |
| 2026-05-07 14:47 | 53.41674 | -6.19133 | 2196 ft | 172 kts | 101° |
| 2026-05-07 14:47 | 53.41561 | -6.17029 | 2668 ft | 192 kts | 98° |
| 2026-05-07 14:47 | 53.41454 | -6.14713 | 3353 ft | 206 kts | 101° |
| 2026-05-07 14:48 | 53.41291 | -6.12219 | 4019 ft | 226 kts | 101° |
| 2026-05-07 14:48 | 53.41129 | -6.09419 | 4522 ft | 255 kts | 99° |
| 2026-05-07 14:48 | 53.40955 | -6.06363 | 5268 ft | 269 kts | 98° |
| 2026-05-07 14:48 | 53.40824 | -6.03205 | 6214 ft | 276 kts | 92° |
| 2026-05-07 14:49 | 53.41015 | -5.99965 | 7157 ft | 281 kts | 86° |
| 2026-05-07 14:49 | 53.41281 | -5.96694 | 8136 ft | 285 kts | 85° |
| 2026-05-07 14:49 | 53.41542 | -5.93408 | 9126 ft | 290 kts | 85° |
| 2026-05-07 14:49 | 53.41801 | -5.90026 | 10089 ft | 296 kts | 86° |
| 2026-05-07 14:50 | 53.42064 | -5.86477 | 10563 ft | 318 kts | 86° |
| 2026-05-07 14:50 | 53.42338 | -5.82661 | 11006 ft | 340 kts | 85° |
| 2026-05-07 14:50 | 53.42625 | -5.78650 | 11733 ft | 350 kts | 86° |
| 2026-05-07 14:50 | 53.42901 | -5.74574 | 12640 ft | 354 kts | 86° |
| 2026-05-07 14:51 | 53.43177 | -5.70447 | 13568 ft | 358 kts | 86° |
| 2026-05-07 14:51 | 53.43454 | -5.66270 | 14377 ft | 363 kts | 86° |
| 2026-05-07 14:51 | 53.43732 | -5.62040 | 15151 ft | 368 kts | 86° |
| 2026-05-07 14:51 | 53.44018 | -5.57745 | 15926 ft | 373 kts | 86° |
| 2026-05-07 14:52 | 53.44309 | -5.53398 | 16703 ft | 378 kts | 86° |
| 2026-05-07 14:52 | 53.44509 | -5.48988 | 17453 ft | 381 kts | 92° |
| 2026-05-07 14:52 | 53.44432 | -5.44467 | 17895 ft | 395 kts | 95° |
| 2026-05-07 14:52 | 53.44303 | -5.39783 | 18221 ft | 408 kts | 95° |
| 2026-05-07 14:53 | 53.44171 | -5.34987 | 18703 ft | 414 kts | 95° |
| 2026-05-07 14:53 | 53.44044 | -5.30127 | 19269 ft | 418 kts | 95° |
| 2026-05-07 14:53 | 53.43960 | -5.26900 | 19642 ft | 420 kts | 95° |